Time;durP1;ratioP1;P1;durP2;ratioP2;P2;SDS_P1;SDS_P2;PMS_P1;PMS_P2;Temp;Humidity;BMP_temperature;BMP_pressure;BME280_temperature;BME280_humidity;BME280_pressure;Samples;Min_cycle;Max_cycle;Signal;HPM_P1;HPM_P2
2021/10/22 00:00:29;;;;;;;1.27;0.30;;;;;;;-143.37;100.00;65745.06;5092798;28;20291;-74
2021/10/22 00:02:55;;;;;;;0.63;0.20;;;;;;;-143.37;100.00;65745.06;5075393;28;20251;-74
2021/10/22 00:05:22;;;;;;;0.47;0.40;;;;;;;-143.37;100.00;65745.06;5093171;28;20211;-74
2021/10/22 00:07:49;;;;;;;0.40;0.20;;;;;;;-143.37;100.00;65745.06;5092296;28;20278;-74
2021/10/22 00:10:15;;;;;;;0.10;0.10;;;;;;;-143.37;100.00;65745.06;5091323;28;20319;-74
2021/10/22 00:12:42;;;;;;;1.03;0.47;;;;;;;-143.37;100.00;65745.06;5092303;28;20713;-73
2021/10/22 00:15:09;;;;;;;0.10;0.10;;;;;;;-143.37;100.00;65745.06;5074603;28;20669;-73
2021/10/22 00:17:37;;;;;;;0.10;0.10;;;;;;;-143.37;100.00;65745.06;5093118;28;20261;-74
2021/10/22 00:20:07;;;;;;;0.20;0.20;;;;;;;-143.37;100.00;65745.06;5092062;28;20207;-74
2021/10/22 00:22:33;;;;;;;0.50;0.20;;;;;;;-143.37;100.00;65745.06;5091864;28;20226;-74
2021/10/22 00:25:00;;;;;;;0.60;0.20;;;;;;;-143.37;100.00;65745.06;5092943;28;20280;-74
2021/10/22 00:27:26;;;;;;;0.67;0.23;;;;;;;-143.37;100.00;65745.06;5091692;28;20295;-72
2021/10/22 00:29:52;;;;;;;0.87;0.37;;;;;;;-143.37;100.00;65745.06;5090728;28;20716;-73
2021/10/22 00:32:19;;;;;;;0.50;0.30;;;;;;;-143.37;100.00;65745.06;5092613;28;20323;-73
2021/10/22 00:34:46;;;;;;;0.10;0.10;;;;;;;-143.37;100.00;65745.06;5093033;28;20208;-74
2021/10/22 00:37:15;;;;;;;0.57;0.27;;;;;;;-143.37;100.00;65745.06;5091685;28;20208;-74
2021/10/22 00:39:41;;;;;;;5.90;0.43;;;;;;;-143.37;100.00;65745.06;5092350;28;20247;-73
2021/10/22 00:42:08;;;;;;;0.73;0.30;;;;;;;-143.37;100.00;65745.06;5091699;28;20221;-73
2021/10/22 00:44:35;;;;;;;0.87;0.20;;;;;;;-143.37;100.00;65745.06;5092509;28;20244;-71
2021/10/22 00:47:01;;;;;;;0.10;0.10;;;;;;;-143.37;100.00;65745.06;5080437;28;20280;-72
2021/10/22 00:49:28;;;;;;;0.17;0.13;;;;;;;-143.37;100.00;65745.06;5071761;28;20228;-73
2021/10/22 00:51:55;;;;;;;0.23;0.23;;;;;;;-143.37;100.00;65745.06;5072468;28;20233;-74
2021/10/22 00:54:21;;;;;;;0.50;0.20;;;;;;;-143.37;100.00;65745.06;5072219;28;20763;-72
2021/10/22 00:56:49;;;;;;;0.57;0.20;;;;;;;-143.37;100.00;65745.06;5072428;28;20208;-73
2021/10/22 00:59:16;;;;;;;0.40;0.23;;;;;;;-143.37;100.00;65745.06;5088459;28;20652;-73
2021/10/22 01:34:59;;;;;;;1.00;0.33;;;;;;;-143.37;100.00;65745.06;5089720;28;20332;-73
2021/10/22 01:37:25;;;;;;;0.47;0.47;;;;;;;-143.37;100.00;65745.06;5089211;28;20752;-73
2021/10/22 01:39:52;;;;;;;0.50;0.43;;;;;;;-143.37;100.00;65745.06;5071307;28;20303;-73
2021/10/22 01:42:18;;;;;;;2.43;0.50;;;;;;;-143.37;100.00;65745.06;5089910;28;20259;-73
2021/10/22 01:44:45;;;;;;;1.07;0.33;;;;;;;-143.37;100.00;65745.06;5089324;28;20696;-73
2021/10/22 01:47:12;;;;;;;0.80;0.40;;;;;;;-143.37;100.00;65745.06;5089146;28;20223;-73
2021/10/22 01:49:38;;;;;;;0.63;0.40;;;;;;;-143.37;100.00;65745.06;5087704;28;20236;-71
2021/10/22 01:52:05;;;;;;;0.73;0.50;;;;;;;-143.37;100.00;65745.06;5090228;28;20266;-72
2021/10/22 01:54:32;;;;;;;2.40;0.80;;;;;;;-143.37;100.00;65745.06;5091383;28;20255;-73
2021/10/22 01:56:59;;;;;;;2.53;0.60;;;;;;;-143.37;100.00;65745.06;5091066;28;20244;-74
2021/10/22 01:59:25;;;;;;;1.23;0.53;;;;;;;-143.37;100.00;65745.06;5089063;28;20236;-74
2021/10/22 02:01:53;;;;;;;1.03;0.40;;;;;;;-143.37;100.00;65745.06;5087469;28;20256;-73
2021/10/22 02:04:19;;;;;;;1.07;0.63;;;;;;;-143.37;100.00;65745.06;5070780;28;20208;-73
2021/10/22 02:06:48;;;;;;;2.47;0.40;;;;;;;-143.37;100.00;65745.06;5088838;28;20240;-73
2021/10/22 02:09:16;;;;;;;0.67;0.60;;;;;;;-143.37;100.00;65745.06;5087449;28;20209;-73
2021/10/22 02:11:42;;;;;;;0.77;0.60;;;;;;;-143.37;100.00;65745.06;5086606;28;20737;-74
2021/10/22 02:14:09;;;;;;;2.40;0.50;;;;;;;-143.37;100.00;65745.06;5088405;28;20303;-73
2021/10/22 02:16:35;;;;;;;0.90;0.50;;;;;;;-143.37;100.00;65745.06;5088313;28;20705;-72
2021/10/22 02:19:02;;;;;;;1.07;0.70;;;;;;;-143.37;100.00;65745.06;5088553;28;20251;-73
2021/10/22 02:21:29;;;;;;;1.77;0.60;;;;;;;-143.37;100.00;65745.06;5087638;28;20233;-74
2021/10/22 02:23:56;;;;;;;2.80;0.60;;;;;;;-143.37;100.00;65745.06;5088361;28;20240;-72
2021/10/22 02:26:22;;;;;;;1.70;0.53;;;;;;;-143.37;100.00;65745.06;5086914;28;20247;-73
2021/10/22 02:28:49;;;;;;;1.13;0.50;;;;;;;-143.37;100.00;65745.06;5088184;28;20287;-74
2021/10/22 02:31:16;;;;;;;2.03;0.43;;;;;;;-143.37;100.00;65745.06;5086228;28;20201;-74
2021/10/22 02:33:43;;;;;;;0.97;0.60;;;;;;;-143.37;100.00;65745.06;5096648;28;20666;-73
2021/10/22 02:36:09;;;;;;;0.40;0.40;;;;;;;-143.37;100.00;65745.06;5108550;28;20216;-70
2021/10/22 02:38:36;;;;;;;1.23;0.60;;;;;;;-143.37;100.00;65745.06;5108366;28;20295;-73
2021/10/22 02:41:02;;;;;;;1.07;0.60;;;;;;;-143.37;100.00;65745.06;5107810;28;20204;-71
2021/10/22 02:43:29;;;;;;;0.63;0.43;;;;;;;-143.37;100.00;65745.06;5108391;28;20196;-73
2021/10/22 02:45:56;;;;;;;1.23;0.63;;;;;;;-143.37;100.00;65745.06;5093070;28;20294;-73
2021/10/22 02:48:22;;;;;;;0.57;0.50;;;;;;;-143.37;100.00;65745.06;5056886;28;20205;-73
2021/10/22 02:50:49;;;;;;;2.47;0.70;;;;;;;-143.37;100.00;65745.06;5073760;28;20213;-73
2021/10/22 02:53:15;;;;;;;4.70;0.83;;;;;;;-143.37;100.00;65745.06;5073936;28;20713;-74
2021/10/22 02:55:42;;;;;;;0.40;0.40;;;;;;;-143.37;100.00;65745.06;5074226;28;20236;-74
2021/10/22 02:58:09;;;;;;;0.93;0.60;;;;;;;-143.37;100.00;65745.06;5080817;28;20243;-71
2021/10/22 03:00:36;;;;;;;2.10;0.53;;;;;;;-143.37;100.00;65745.06;5093774;28;20239;-73
2021/10/22 03:03:03;;;;;;;0.53;0.53;;;;;;;-143.37;100.00;65745.06;5094419;28;20285;-72
2021/10/22 03:05:31;;;;;;;0.50;0.50;;;;;;;-143.37;100.00;65745.06;5094257;28;20240;-74
2021/10/22 03:07:57;;;;;;;2.47;0.63;;;;;;;-143.37;100.00;65745.06;5094233;28;20244;-73
2021/10/22 03:10:25;;;;;;;3.70;0.60;;;;;;;-143.37;100.00;65745.06;5093462;28;20244;-73
2021/10/22 03:12:52;;;;;;;1.97;0.53;;;;;;;-143.37;100.00;65745.06;5093878;28;20315;-72
2021/10/22 03:15:18;;;;;;;0.50;0.50;;;;;;;-143.37;100.00;65745.06;5093955;28;20656;-70
2021/10/22 03:17:46;;;;;;;0.60;0.40;;;;;;;-143.37;100.00;65745.06;5093995;28;20204;-71
2021/10/22 03:20:12;;;;;;;1.30;0.50;;;;;;;-143.37;100.00;65745.06;5093383;28;20304;-71
2021/10/22 03:22:39;;;;;;;0.30;0.30;;;;;;;-143.37;100.00;65745.06;5094027;28;20275;-71
2021/10/22 03:25:06;;;;;;;0.40;0.40;;;;;;;-143.37;100.00;65745.06;5092678;28;20266;-71
2021/10/22 03:27:34;;;;;;;4.30;0.60;;;;;;;-143.37;100.00;65745.06;5093958;28;20205;-74
2021/10/22 03:30:01;;;;;;;1.63;0.40;;;;;;;-143.37;100.00;65745.06;5093465;28;20218;-74
2021/10/22 03:32:32;;;;;;;1.00;0.70;;;;;;;-143.37;100.00;65745.06;5094285;28;20320;-73
2021/10/22 03:35:00;;;;;;;0.50;0.50;;;;;;;-143.37;100.00;65745.06;5094174;28;20263;-74
2021/10/22 03:37:27;;;;;;;1.17;0.80;;;;;;;-143.37;100.00;65745.06;5094147;28;20228;-74
2021/10/22 03:39:53;;;;;;;1.00;0.90;;;;;;;-143.37;100.00;65745.06;5093032;28;20277;-73
2021/10/22 03:42:20;;;;;;;1.80;0.63;;;;;;;-143.37;100.00;65745.06;5092583;28;20252;-73
2021/10/22 03:44:47;;;;;;;2.50;0.80;;;;;;;-143.37;100.00;65745.06;5093446;28;20291;-73
2021/10/22 03:47:13;;;;;;;2.23;1.03;;;;;;;-143.37;100.00;65745.06;5079760;28;20739;-73
2021/10/22 03:49:40;;;;;;;1.80;0.80;;;;;;;-143.37;100.00;65745.06;5072621;28;20305;-73
2021/10/22 03:52:06;;;;;;;1.23;0.77;;;;;;;-143.37;100.00;65745.06;5088704;28;20249;-69
2021/10/22 03:54:33;;;;;;;3.43;0.77;;;;;;;-143.37;100.00;65745.06;5072879;28;20225;-69
2021/10/22 03:56:59;;;;;;;2.90;1.00;;;;;;;-143.37;100.00;65745.06;5072319;28;20210;-68
2021/10/22 03:59:26;;;;;;;4.73;0.93;;;;;;;-143.37;100.00;65745.06;5090157;28;20239;-69
2021/10/22 04:01:52;;;;;;;3.60;1.07;;;;;;;-143.37;100.00;65745.06;5093057;28;20322;-71
2021/10/22 04:04:27;;;;;;;2.00;0.70;;;;;;;-143.37;100.00;65745.06;5092964;28;20205;-69
2021/10/22 04:06:54;;;;;;;4.17;1.40;;;;;;;-143.37;100.00;65745.06;5093096;28;20663;-71
2021/10/22 04:09:21;;;;;;;5.57;0.80;;;;;;;-143.37;100.00;65745.06;5092779;28;20690;-72
2021/10/22 04:11:47;;;;;;;2.77;1.07;;;;;;;-143.37;100.00;65745.06;5092825;28;20232;-71
2021/10/22 04:14:14;;;;;;;4.47;1.17;;;;;;;-143.37;100.00;65745.06;5074949;28;20701;-68
2021/10/22 04:16:40;;;;;;;2.73;0.90;;;;;;;-143.37;100.00;65745.06;5093088;28;20683;-69
2021/10/22 04:19:07;;;;;;;2.87;1.30;;;;;;;-143.37;100.00;65745.06;5093155;28;20209;-71
2021/10/22 04:21:33;;;;;;;5.23;1.10;;;;;;;-143.37;100.00;65745.06;5092629;28;20242;-69
2021/10/22 04:24:00;;;;;;;5.93;1.07;;;;;;;-143.37;100.00;65745.06;5093787;28;20212;-69
2021/10/22 04:26:26;;;;;;;2.70;1.27;;;;;;;-143.37;100.00;65745.06;5094315;28;20228;-72
2021/10/22 04:28:53;;;;;;;2.80;1.50;;;;;;;-143.37;100.00;65745.06;5094978;28;20258;-71
2021/10/22 04:31:19;;;;;;;6.83;1.90;;;;;;;-143.37;100.00;65745.06;5092122;28;21014;-74
2021/10/22 04:33:46;;;;;;;5.40;1.30;;;;;;;-143.37;100.00;65745.06;5087941;28;20640;-74
2021/10/22 04:36:13;;;;;;;3.77;1.20;;;;;;;-143.37;100.00;65745.06;5086259;28;20186;-74
2021/10/22 04:41:25;;;;;;;4.00;1.60;;;;;;;-143.37;100.00;65745.06;5082243;28;20232;-74
2021/10/22 04:43:52;;;;;;;5.03;1.00;;;;;;;-143.37;100.00;65745.06;5081002;28;20228;-74
2021/10/22 04:46:20;;;;;;;4.60;1.03;;;;;;;-143.37;100.00;65745.06;5082918;28;20229;-73
2021/10/22 04:48:48;;;;;;;8.23;1.20;;;;;;;-143.37;100.00;65745.06;5066333;28;20199;-74
2021/10/22 04:51:15;;;;;;;3.13;1.13;;;;;;;-143.37;100.00;65745.06;5079611;28;20279;-72
2021/10/22 04:53:41;;;;;;;1.53;1.00;;;;;;;-143.37;100.00;65745.06;5081505;28;20279;-72
2021/10/22 04:56:08;;;;;;;4.07;1.13;;;;;;;-143.37;100.00;65745.06;5082252;28;20271;-72
2021/10/22 04:58:34;;;;;;;5.33;1.20;;;;;;;-143.37;100.00;65745.06;5079305;28;20288;-72
2021/10/22 05:01:01;;;;;;;7.60;1.63;;;;;;;-143.37;100.00;65745.06;5077612;28;20288;-72
2021/10/22 05:03:28;;;;;;;3.03;1.30;;;;;;;-143.37;100.00;65745.06;5079724;28;20228;-71
2021/10/22 05:05:55;;;;;;;4.43;1.93;;;;;;;-143.37;100.00;65745.06;5072116;28;20209;-71
2021/10/22 05:08:22;;;;;;;7.47;1.60;;;;;;;-143.37;100.00;65745.06;5069928;28;20244;-71
2021/10/22 05:10:49;;;;;;;2.40;1.20;;;;;;;-143.37;100.00;65745.06;5090343;28;20200;-72
2021/10/22 05:13:16;;;;;;;4.60;1.47;;;;;;;-143.37;100.00;65745.06;5089695;28;20271;-72
2021/10/22 05:15:43;;;;;;;4.00;1.30;;;;;;;-143.37;100.00;65745.06;5067388;28;20646;-72
2021/10/22 05:18:10;;;;;;;5.90;2.33;;;;;;;-143.37;100.00;65745.06;5071332;28;20206;-71
2021/10/22 05:20:36;;;;;;;2.73;1.13;;;;;;;-143.37;100.00;65745.06;5091125;28;20204;-72
2021/10/22 05:23:09;;;;;;;6.70;1.93;;;;;;;-143.37;100.00;65745.06;5090646;28;20282;-71
2021/10/22 05:25:36;;;;;;;6.67;1.57;;;;;;;-143.37;100.00;65745.06;5089802;28;20219;-72
2021/10/22 05:28:03;;;;;;;5.47;1.47;;;;;;;-143.37;100.00;65745.06;5090510;28;20574;-71
2021/10/22 05:30:30;;;;;;;3.27;1.30;;;;;;;-143.37;100.00;65745.06;5088499;28;20220;-71
2021/10/22 05:32:56;;;;;;;5.07;1.17;;;;;;;-143.37;100.00;65745.06;5090530;28;20268;-71
2021/10/22 05:35:23;;;;;;;4.97;1.30;;;;;;;-143.37;100.00;65745.06;5090364;28;20255;-72
2021/10/22 05:37:49;;;;;;;5.33;1.10;;;;;;;-143.37;100.00;65745.06;5087741;28;20756;-72
2021/10/22 05:40:16;;;;;;;4.33;1.07;;;;;;;-143.37;100.00;65745.06;5076908;28;20201;-71
2021/10/22 05:42:42;;;;;;;10.37;1.93;;;;;;;-143.37;100.00;65745.06;5085411;28;20347;-71
2021/10/22 05:45:09;;;;;;;6.60;2.10;;;;;;;-143.37;100.00;65745.06;5086759;28;20283;-71
2021/10/22 05:47:37;;;;;;;6.50;1.77;;;;;;;-143.37;100.00;65745.06;5063915;28;20200;-71
2021/10/22 05:50:04;;;;;;;5.57;1.53;;;;;;;-143.37;100.00;65745.06;5084736;28;20211;-70
2021/10/22 05:52:32;;;;;;;4.20;1.40;;;;;;;-143.37;100.00;65745.06;5084787;28;20216;-72
2021/10/22 05:54:58;;;;;;;3.37;1.60;;;;;;;-143.37;100.00;65745.06;5086364;28;20263;-71
2021/10/22 05:57:25;;;;;;;5.50;1.70;;;;;;;-143.37;100.00;65745.06;5084804;28;20665;-71
2021/10/22 05:59:52;;;;;;;5.27;1.47;;;;;;;-143.37;100.00;65745.06;5085798;28;20201;-71
2021/10/22 06:02:18;;;;;;;3.80;1.40;;;;;;;-143.37;100.00;65745.06;5060134;28;20763;-69
2021/10/22 06:04:45;;;;;;;5.00;1.80;;;;;;;-143.37;100.00;65745.06;5087134;28;20250;-71
2021/10/22 06:07:12;;;;;;;5.10;1.30;;;;;;;-143.37;100.00;65745.06;5086042;28;20414;-72
2021/10/22 06:09:38;;;;;;;9.20;1.80;;;;;;;-143.37;100.00;65745.06;5086694;28;20226;-71
2021/10/22 06:12:05;;;;;;;3.30;1.23;;;;;;;-143.37;100.00;65745.06;5085289;28;20252;-71
2021/10/22 06:14:32;;;;;;;3.67;1.10;;;;;;;-143.37;100.00;65745.06;5086896;28;20311;-70
2021/10/22 06:16:59;;;;;;;3.40;1.43;;;;;;;-143.37;100.00;65745.06;5087737;28;20216;-71
2021/10/22 06:19:29;;;;;;;3.63;1.37;;;;;;;-143.37;100.00;65745.06;5086846;28;20216;-72
2021/10/22 06:22:52;;;;;;;5.77;1.90;;;;;;;-143.37;100.00;65745.06;5090371;28;20219;-71
2021/10/22 06:24:45;;;;;;;5.80;1.70;;;;;;;-143.37;100.00;65745.06;5075059;28;20291;-72
2021/10/22 06:27:12;;;;;;;3.30;1.20;;;;;;;-143.37;100.00;65745.06;5087547;28;20206;-72
2021/10/22 06:29:39;;;;;;;8.23;1.83;;;;;;;-143.37;100.00;65745.06;5086106;28;20218;-72
2021/10/22 06:32:05;;;;;;;2.97;1.10;;;;;;;-143.37;100.00;65745.06;5084036;28;20702;-72
2021/10/22 06:34:36;;;;;;;6.63;1.50;;;;;;;-143.37;100.00;65745.06;5078800;28;20639;-71
2021/10/22 06:37:03;;;;;;;4.73;1.00;;;;;;;-143.37;100.00;65745.06;5071479;28;20235;-71
2021/10/22 06:39:30;;;;;;;4.17;1.23;;;;;;;-143.37;100.00;65745.06;5071516;28;20228;-68
2021/10/22 06:42:01;;;;;;;7.63;2.35;;;;;;;-143.37;100.00;65745.06;5072605;28;20221;-69
2021/10/22 06:44:27;;;;;;;3.20;1.23;;;;;;;-143.37;100.00;65745.06;5074617;28;20232;-72
2021/10/22 06:46:55;;;;;;;3.97;1.00;;;;;;;-143.37;100.00;65745.06;5074644;28;20201;-71
2021/10/22 06:49:22;;;;;;;2.72;0.95;;;;;;;-143.37;100.00;65745.06;5074083;28;20700;-71
2021/10/22 06:51:50;;;;;;;4.63;0.82;;;;;;;-143.37;100.00;65745.06;5074178;28;20319;-70
2021/10/22 06:54:17;;;;;;;4.05;1.25;;;;;;;-143.37;100.00;65745.06;5074133;28;20681;-73
2021/10/22 06:56:43;;;;;;;3.13;1.17;;;;;;;-143.37;100.00;65745.06;5074047;28;20243;-71
2021/10/22 06:59:10;;;;;;;4.45;1.50;;;;;;;-143.37;100.00;65745.06;5089347;28;20257;-71
2021/10/22 07:01:37;;;;;;;5.72;1.50;;;;;;;-143.37;100.00;65745.06;5092412;28;20657;-73
2021/10/22 07:04:04;;;;;;;2.00;0.90;;;;;;;-143.37;100.00;65745.06;5094104;28;20558;-72
2021/10/22 07:09:16;;;;;;;4.93;1.30;;;;;;;-143.37;100.00;65745.06;5089311;28;20284;-71
2021/10/22 07:11:42;;;;;;;6.90;1.55;;;;;;;-143.37;100.00;65745.06;5096938;28;20232;-71
2021/10/22 07:14:09;;;;;;;8.30;1.48;;;;;;;-143.37;100.00;65745.06;5101649;28;20208;-70
2021/10/22 07:16:38;;;;;;;8.10;1.75;;;;;;;-143.37;100.00;65745.06;5098191;28;20275;-70
2021/10/22 07:19:05;;;;;;;3.50;1.25;;;;;;;-143.37;100.00;65745.06;5093843;28;20247;-72
2021/10/22 07:21:33;;;;;;;4.32;1.00;;;;;;;-143.37;100.00;65745.06;5093549;28;20319;-73
2021/10/22 07:24:01;;;;;;;2.13;1.00;;;;;;;-143.37;100.00;65745.06;5094042;28;20295;-70
2021/10/22 07:26:28;;;;;;;4.22;1.60;;;;;;;-143.37;100.00;65745.06;5093548;28;20228;-69
2021/10/22 07:28:54;;;;;;;3.47;0.90;;;;;;;-143.37;100.00;65745.06;5093530;28;20239;-71
2021/10/22 07:31:21;;;;;;;5.30;1.67;;;;;;;-143.37;100.00;65745.06;5092359;28;20262;-71
2021/10/22 07:33:48;;;;;;;5.50;1.52;;;;;;;-143.37;100.00;65745.06;5093057;28;20310;-70
2021/10/22 07:36:15;;;;;;;2.53;1.30;;;;;;;-143.37;100.00;65745.06;5093564;28;20236;-70
2021/10/22 07:38:43;;;;;;;4.63;1.25;;;;;;;-143.37;100.00;65745.06;5092190;28;20208;-71
2021/10/22 07:41:14;;;;;;;7.30;1.25;;;;;;;-143.37;100.00;65745.06;5092641;28;20242;-70
2021/10/22 07:43:41;;;;;;;6.43;1.27;;;;;;;-143.37;100.00;65745.06;5092050;28;20208;-70
2021/10/22 07:46:08;;;;;;;2.90;1.17;;;;;;;-143.37;100.00;65745.06;5088944;28;20308;-70
2021/10/22 07:48:35;;;;;;;7.03;1.38;;;;;;;-143.37;100.00;65745.06;5073217;28;20208;-69
2021/10/22 07:51:02;;;;;;;5.93;1.48;;;;;;;-143.37;100.00;65745.06;5072341;28;20299;-71
2021/10/22 07:53:28;;;;;;;2.58;1.20;;;;;;;-143.37;100.00;65745.06;5072864;28;20312;-73
2021/10/22 07:55:56;;;;;;;3.60;1.10;;;;;;;-143.37;100.00;65745.06;5072964;28;20203;-74
2021/10/22 07:58:22;;;;;;;6.55;1.42;;;;;;;-143.37;100.00;65745.06;5091825;28;20241;-72
2021/10/22 08:00:50;;;;;;;3.88;1.45;;;;;;;-143.37;100.00;65745.06;5093085;28;20299;-72
2021/10/22 08:03:16;;;;;;;4.82;1.10;;;;;;;-143.37;100.00;65745.06;5093861;28;20225;-72
2021/10/22 08:05:43;;;;;;;4.50;1.00;;;;;;;-143.37;100.00;65745.06;5094082;28;20232;-72
2021/10/22 08:08:10;;;;;;;5.35;1.63;;;;;;;-143.37;100.00;65745.06;5092799;28;20824;-72
2021/10/22 08:10:40;;;;;;;9.20;2.28;;;;;;;-143.37;100.00;65745.06;5091990;28;20196;-70
2021/10/22 08:13:10;;;;;;;4.43;1.55;;;;;;;-143.37;100.00;65745.06;5092217;28;20233;-70
2021/10/22 08:15:42;;;;;;;3.15;1.23;;;;;;;-143.37;100.00;65745.06;5092502;28;20196;-72
2021/10/22 08:18:10;;;;;;;3.17;1.25;;;;;;;-143.37;100.00;65745.06;5074802;28;20204;-70
2021/10/22 08:20:48;;;;;;;5.88;1.50;;;;;;;-143.37;100.00;65745.06;5091855;28;20204;-70
2021/10/22 08:23:17;;;;;;;2.67;1.20;;;;;;;-143.37;100.00;65745.06;5092149;28;20251;-71
2021/10/22 08:25:45;;;;;;;5.63;1.52;;;;;;;-143.37;100.00;65745.06;5092288;28;20607;-73
2021/10/22 08:28:11;;;;;;;3.45;1.17;;;;;;;-143.37;100.00;65745.06;5091382;28;20312;-69
2021/10/22 08:30:38;;;;;;;2.72;1.30;;;;;;;-143.37;100.00;65745.06;5091960;28;20291;-70
2021/10/22 08:33:05;;;;;;;4.35;1.00;;;;;;;-143.37;100.00;65745.06;5092446;28;20243;-71
2021/10/22 08:35:32;;;;;;;5.30;1.08;;;;;;;-143.37;100.00;65745.06;5091463;28;20649;-69
2021/10/22 08:37:58;;;;;;;6.90;1.55;;;;;;;-143.37;100.00;65745.06;5091896;28;20269;-69
2021/10/22 08:40:26;;;;;;;5.95;1.20;;;;;;;-143.37;100.00;65745.06;5091173;28;20656;-70
2021/10/22 08:42:53;;;;;;;4.47;1.30;;;;;;;-143.37;100.00;65745.06;5090440;28;20234;-69
2021/10/22 08:45:20;;;;;;;4.05;1.15;;;;;;;-143.37;100.00;65745.06;5092036;28;20255;-70
2021/10/22 08:47:47;;;;;;;4.63;1.40;;;;;;;-143.37;100.00;65745.06;5073926;28;20644;-72
2021/10/22 08:50:17;;;;;;;3.50;1.23;;;;;;;-143.37;100.00;65745.06;5071236;28;20229;-73
2021/10/22 08:52:44;;;;;;;9.60;1.98;;;;;;;-143.37;100.00;65745.06;5072037;28;20752;-71
2021/10/22 08:55:14;;;;;;;3.03;1.13;;;;;;;-143.37;100.00;65745.06;5087992;28;20201;-72
2021/10/22 08:57:42;;;;;;;3.70;1.30;;;;;;;-143.37;100.00;65745.06;5092027;28;20669;-72
2021/10/22 09:00:11;;;;;;;6.40;1.95;;;;;;;-143.37;100.00;65745.06;5091059;28;20201;-73
2021/10/22 09:02:38;;;;;;;3.20;1.02;;;;;;;-143.37;100.00;65745.06;5091584;28;20320;-73
2021/10/22 09:05:17;;;;;;;3.83;1.40;;;;;;;-143.37;100.00;65745.06;5082464;28;20742;-73
2021/10/22 09:07:50;;;;;;;4.65;1.60;;;;;;;-143.37;100.00;65745.06;5085282;28;20224;-72
2021/10/22 09:10:25;;;;;;;4.10;1.13;;;;;;;-143.37;100.00;65745.06;5087443;28;20237;-72
2021/10/22 09:12:57;;;;;;;5.28;1.23;;;;;;;-143.37;100.00;65745.06;5087696;28;20220;-71
2021/10/22 09:15:29;;;;;;;5.70;1.23;;;;;;;-143.37;100.00;65745.06;5088371;28;20204;-73
2021/10/22 09:17:58;;;;;;;3.17;1.17;;;;;;;-143.37;100.00;65745.06;5087773;28;20249;-72
2021/10/22 09:20:26;;;;;;;3.60;1.10;;;;;;;-143.37;100.00;65745.06;5086992;28;20212;-74
2021/10/22 09:22:59;;;;;;;4.05;1.10;;;;;;;-143.37;100.00;65745.06;5086882;28;20733;-71
2021/10/22 09:25:29;;;;;;;1.55;0.93;;;;;;;-143.37;100.00;65745.06;5083800;28;20299;-70
2021/10/22 09:28:01;;;;;;;4.47;1.08;;;;;;;-143.37;100.00;65745.06;5077709;28;20299;-71
2021/10/22 09:30:38;;;;;;;4.80;1.30;;;;;;;-143.37;100.00;65745.06;5076662;28;20809;-70
2021/10/22 09:33:12;;;;;;;4.65;1.05;;;;;;;-143.37;100.00;65745.06;5079114;28;20297;-70
2021/10/22 09:35:43;;;;;;;5.70;1.67;;;;;;;-143.37;100.00;65745.06;5087340;28;20206;-70
2021/10/22 09:38:26;;;;;;;3.20;1.20;;;;;;;-143.37;100.00;65745.06;5083365;28;20208;-71
2021/10/22 09:41:08;;;;;;;4.68;1.35;;;;;;;-143.37;100.00;65745.06;5086370;28;20707;-71
2021/10/22 09:43:41;;;;;;;6.88;1.58;;;;;;;-143.37;100.00;65745.06;5098127;28;20252;-70
2021/10/22 09:46:14;;;;;;;1.80;1.27;;;;;;;-143.37;100.00;65745.06;5108328;28;20262;-70
2021/10/22 09:48:43;;;;;;;4.13;1.35;;;;;;;-143.37;100.00;65745.06;5109781;28;20249;-69
2021/10/22 09:51:19;;;;;;;4.10;1.23;;;;;;;-143.37;100.00;65745.06;5090352;28;20205;-70
2021/10/22 09:53:45;;;;;;;7.45;1.35;;;;;;;-143.37;100.00;65745.06;5087907;28;20284;-70
2021/10/22 09:56:30;;;;;;;11.15;1.58;;;;;;;-143.37;100.00;65745.06;5089099;28;20724;-70
2021/10/22 09:58:58;;;;;;;4.70;1.20;;;;;;;-143.37;100.00;65745.06;5090545;28;20204;-70
2021/10/22 10:01:45;;;;;;;6.47;1.40;;;;;;;-143.37;100.00;65745.06;5091388;28;20311;-70
2021/10/22 10:04:13;;;;;;;5.15;1.05;;;;;;;-143.37;100.00;65745.06;5090283;28;20304;-71
2021/10/22 10:07:03;;;;;;;5.93;0.82;;;;;;;-143.37;100.00;65745.06;5092248;28;20228;-70
2021/10/22 10:09:30;;;;;;;4.72;1.23;;;;;;;-143.37;100.00;65745.06;5088247;28;20987;-71
2021/10/22 10:12:04;;;;;;;4.67;0.83;;;;;;;-143.37;100.00;65745.06;5089946;28;20250;-70
2021/10/22 10:14:31;;;;;;;4.77;0.90;;;;;;;-143.37;100.00;65745.06;5084094;28;20223;-71
2021/10/22 10:17:00;;;;;;;6.63;0.83;;;;;;;-143.37;100.00;65745.06;5091823;28;20204;-72
2021/10/22 10:19:43;;;;;;;9.47;1.27;;;;;;;-143.37;100.00;65745.06;5086427;28;20232;-71
2021/10/22 10:22:12;;;;;;;5.60;0.87;;;;;;;-143.37;100.00;65745.06;5091110;28;20256;-70
2021/10/22 10:24:43;;;;;;;8.30;1.37;;;;;;;-143.37;100.00;65745.06;5091766;28;20801;-70
2021/10/22 10:27:14;;;;;;;6.53;1.03;;;;;;;-143.37;100.00;65745.06;5091277;28;20719;-70
2021/10/22 10:29:45;;;;;;;11.93;1.03;;;;;;;-143.37;100.00;65745.06;5088792;28;20200;-71
2021/10/22 10:32:17;;;;;;;6.20;1.07;;;;;;;-143.37;100.00;65745.06;5091096;28;20308;-70
2021/10/22 10:35:10;;;;;;;3.27;0.60;;;;;;;-143.37;100.00;65745.06;5090319;28;20243;-72
2021/10/22 10:37:39;;;;;;;3.90;1.33;;;;;;;-143.37;100.00;65745.06;5088595;28;20205;-71
2021/10/22 10:40:12;;;;;;;2.67;1.13;;;;;;;-143.37;100.00;65745.06;5089636;28;20789;-71
2021/10/22 10:42:44;;;;;;;3.33;0.67;;;;;;;-143.37;100.00;65745.06;5090883;28;20289;-71
2021/10/22 10:45:23;;;;;;;2.60;0.73;;;;;;;-143.37;100.00;65745.06;5091141;28;20277;-72
2021/10/22 10:47:51;;;;;;;5.40;1.50;;;;;;;-143.37;100.00;65745.06;5089179;28;20205;-70
2021/10/22 10:50:25;;;;;;;10.70;1.10;;;;;;;-143.37;100.00;65745.06;5089992;28;20255;-71
2021/10/22 10:52:55;;;;;;;6.03;1.40;;;;;;;-143.37;100.00;65745.06;5090386;28;20306;-70
2021/10/22 10:55:31;;;;;;;1.70;0.57;;;;;;;-143.37;100.00;65745.06;5089570;28;20234;-71
2021/10/22 10:58:09;;;;;;;5.97;0.90;;;;;;;-143.37;100.00;65745.06;5090951;28;20287;-71
2021/10/22 11:00:38;;;;;;;6.20;1.10;;;;;;;-143.37;100.00;65745.06;5090266;28;20228;-71
2021/10/22 11:03:07;;;;;;;5.23;1.20;;;;;;;-143.37;100.00;65745.06;5090935;28;20236;-70
2021/10/22 11:05:43;;;;;;;4.87;0.93;;;;;;;-143.37;100.00;65745.06;5088948;28;20309;-72
2021/10/22 11:08:18;;;;;;;3.30;1.17;;;;;;;-143.37;100.00;65745.06;5090903;28;20203;-71
2021/10/22 11:11:02;;;;;;;3.23;0.77;;;;;;;-143.37;100.00;65745.06;5089913;28;20299;-71
2021/10/22 11:13:41;;;;;;;3.07;0.90;;;;;;;-143.37;100.00;65745.06;5091036;28;20316;-70
2021/10/22 11:16:47;;;;;;;4.40;0.87;;;;;;;-143.37;100.00;65745.06;5089101;28;20402;-70
2021/10/22 11:19:18;;;;;;;3.33;0.90;;;;;;;-143.37;100.00;65745.06;5076901;28;20222;-72
2021/10/22 11:21:54;;;;;;;3.90;1.00;;;;;;;-143.37;100.00;65745.06;5088742;28;20594;-71
2021/10/22 11:24:24;;;;;;;2.40;0.73;;;;;;;-143.37;100.00;65745.06;5090001;28;20295;-70
2021/10/22 11:27:01;;;;;;;7.87;1.33;;;;;;;-143.37;100.00;65745.06;5085561;28;20252;-71
2021/10/22 11:29:32;;;;;;;5.27;0.90;;;;;;;-143.37;100.00;65745.06;5090278;28;20645;-70
2021/10/22 11:32:03;;;;;;;9.37;1.10;;;;;;;-143.37;100.00;65745.06;5090902;28;20279;-70
2021/10/22 11:34:32;;;;;;;8.93;0.80;;;;;;;-143.37;100.00;65745.06;5089432;28;20242;-70
2021/10/22 11:37:06;;;;;;;3.13;0.93;;;;;;;-143.37;100.00;65745.06;5081594;28;20197;-70
2021/10/22 11:39:36;;;;;;;3.87;0.83;;;;;;;-143.37;100.00;65745.06;5088191;28;20676;-71
2021/10/22 11:42:16;;;;;;;3.17;0.80;;;;;;;-143.37;100.00;65745.06;5088820;28;20244;-70
2021/10/22 11:44:54;;;;;;;3.43;1.07;;;;;;;-143.37;100.00;65745.06;5089895;28;20266;-69
2021/10/22 11:47:22;;;;;;;3.57;0.83;;;;;;;-143.37;100.00;65745.06;5089875;28;20724;-70
2021/10/22 11:49:48;;;;;;;3.40;0.90;;;;;;;-143.37;100.00;65745.06;5088368;28;20302;-69
2021/10/22 11:52:17;;;;;;;3.87;0.90;;;;;;;-143.37;100.00;65745.06;5089350;28;20307;-69
2021/10/22 11:54:47;;;;;;;4.50;1.20;;;;;;;-143.37;100.00;65745.06;5089514;28;20676;-69